Time;durP1;ratioP1;P1;durP2;ratioP2;P2;SDS_P1;SDS_P2;PMS_P1;PMS_P2;Temp;Humidity;BMP_temperature;BMP_pressure;BME280_temperature;BME280_humidity;BME280_pressure;Samples;Min_cycle;Max_cycle;Signal;HPM_P1;HPM_P2
2022/04/24 00:00:35;;;;;;;13.25;7.38;;;11.10;66.20;;;;;;5053047;28;20501;-78
2022/04/24 00:03:01;;;;;;;12.35;6.95;;;11.10;66.20;;;;;;5040652;28;20076;-78
2022/04/24 00:05:27;;;;;;;11.25;5.97;;;11.00;66.20;;;;;;5056102;28;20032;-75
2022/04/24 00:07:53;;;;;;;11.23;6.07;;;11.00;66.20;;;;;;5020829;28;20087;-75
2022/04/24 00:10:19;;;;;;;12.20;5.90;;;11.00;66.20;;;;;;5055192;28;20025;-78
2022/04/24 00:12:45;;;;;;;;;;;10.90;65.60;;;;;;5056923;28;20043;-78
2022/04/24 00:15:11;;;;;;;15.50;9.38;;;10.90;65.20;;;;;;5060440;28;19920;-78
2022/04/24 00:17:38;;;;;;;26.38;13.68;;;10.80;65.90;;;;;;5066683;28;20029;-75
2022/04/24 00:20:05;;;;;;;47.30;24.83;;;10.60;65.30;;;;;;5060420;28;20048;-78
2022/04/24 00:22:31;;;;;;;52.10;29.27;;;10.60;66.00;;;;;;5037028;28;20495;-78
2022/04/24 00:24:57;;;;;;;49.75;26.02;;;10.60;67.00;;;;;;5038436;28;20033;-75
2022/04/24 00:27:23;;;;;;;37.95;20.92;;;10.50;66.10;;;;;;5037078;28;20393;-78
2022/04/24 00:29:49;;;;;;;37.78;19.70;;;10.50;66.10;;;;;;5044419;28;20029;-75
2022/04/24 00:32:15;;;;;;;35.35;18.67;;;10.40;66.00;;;;;;5038163;28;20149;-78
2022/04/24 00:34:42;;;;;;;76.50;37.72;;;10.40;66.20;;;;;;5040516;28;20098;-78
2022/04/24 00:37:08;;;;;;;66.32;36.38;;;10.30;66.10;;;;;;5037972;28;20416;-75
2022/04/24 00:39:34;;;;;;;44.95;22.92;;;10.30;66.20;;;;;;5054865;28;20400;-78
2022/04/24 00:42:00;;;;;;;55.42;30.13;;;10.20;65.40;;;;;;5043567;28;20064;-78
2022/04/24 00:44:27;;;;;;;59.10;34.80;;;10.20;66.30;;;;;;5060012;28;20059;-75
2022/04/24 00:46:57;;;;;;;45.45;29.73;;;10.20;66.30;;;;;;5062038;28;20067;-75
2022/04/24 00:49:24;;;;;;;46.67;29.80;;;10.10;66.30;;;;;;5055326;28;20032;-78
2022/04/24 00:51:51;;;;;;;49.38;28.00;;;10.10;66.20;;;;;;5040611;28;20025;-78
2022/04/24 00:54:18;;;;;;;48.90;31.08;;;10.10;66.30;;;;;;5020058;28;20489;-78
2022/04/24 00:56:44;;;;;;;46.38;30.52;;;10.00;66.40;;;;;;5058602;28;20036;-75
2022/04/24 00:59:13;;;;;;;35.58;24.02;;;10.00;66.20;;;;;;5042140;28;20055;-78
2022/04/24 01:01:41;;;;;;;26.48;16.77;;;10.00;66.00;;;;;;5020280;28;20124;-78
2022/04/24 01:04:09;;;;;;;22.88;14.52;;;10.00;66.00;;;;;;5039938;28;20458;-78
2022/04/24 01:06:41;;;;;;;27.20;15.75;;;10.00;66.00;;;;;;5066832;28;20762;-75
2022/04/24 01:09:26;;;;;;;24.58;15.65;;;9.90;66.30;;;;;;5047876;28;20048;-75
2022/04/24 01:11:55;;;;;;;20.80;14.55;;;9.90;66.20;;;;;;5026545;28;20577;-75
2022/04/24 01:14:25;;;;;;;20.73;13.52;;;9.90;66.30;;;;;;5049906;28;20127;-78
2022/04/24 01:16:53;;;;;;;22.38;12.18;;;9.90;66.20;;;;;;5064339;28;20074;-78
2022/04/24 01:19:20;;;;;;;17.95;11.25;;;9.90;66.30;;;;;;5036344;28;20101;-78
2022/04/24 01:21:48;;;;;;;16.27;10.50;;;9.90;66.30;;;;;;5036493;28;20033;-75
2022/04/24 01:24:34;;;;;;;19.42;11.15;;;9.90;66.40;;;;;;5044389;28;20028;-78
2022/04/24 01:27:01;;;;;;;16.50;11.25;;;9.90;66.70;;;;;;5064716;28;20033;-77
2022/04/24 01:29:27;;;;;;;18.92;10.50;;;9.90;66.70;;;;;;5069788;28;20086;-75
2022/04/24 01:31:53;;;;;;;17.90;9.65;;;9.90;66.80;;;;;;5051756;28;20108;-75
2022/04/24 01:34:20;;;;;;;15.00;9.73;;;9.90;67.00;;;;;;5055046;28;20057;-75
2022/04/24 01:36:47;;;;;;;17.63;11.63;;;9.80;66.80;;;;;;5032590;28;20084;-75
2022/04/24 01:39:17;;;;;;;19.33;11.82;;;9.80;67.20;;;;;;5035806;28;20477;-75
2022/04/24 01:41:43;;;;;;;20.55;10.63;;;9.80;67.10;;;;;;5048449;28;20040;-75
2022/04/24 01:44:10;;;;;;;15.32;10.05;;;9.80;66.40;;;;;;5045702;28;20033;-76
2022/04/24 01:46:36;;;;;;;15.25;9.95;;;9.80;67.20;;;;;;5032891;28;20242;-75
2022/04/24 01:49:03;;;;;;;16.90;9.35;;;9.80;67.10;;;;;;5060567;28;20465;-75
2022/04/24 01:51:29;;;;;;;13.13;8.43;;;9.70;67.00;;;;;;5030323;28;20029;-78
2022/04/24 01:53:55;;;;;;;15.93;10.70;;;9.80;67.00;;;;;;5053002;28;20040;-78
2022/04/24 01:56:22;;;;;;;16.73;10.27;;;9.80;67.10;;;;;;5041291;28;20116;-78
2022/04/24 01:58:48;;;;;;;12.73;7.18;;;9.70;67.20;;;;;;5046596;28;20055;-74
2022/04/24 02:01:14;;;;;;;10.90;7.10;;;9.80;67.10;;;;;;5058994;28;20061;-75
2022/04/24 02:03:40;;;;;;;12.32;6.50;;;9.80;66.70;;;;;;5030647;28;20041;-75
2022/04/24 02:06:06;;;;;;;9.60;5.82;;;9.80;66.70;;;;;;5065614;28;20040;-77
2022/04/24 02:11:18;;;;;;;11.90;7.05;;;9.80;66.40;;;;;;5052529;28;20448;-78
2022/04/24 02:13:45;;;;;;;11.98;6.50;;;9.80;66.60;;;;;;5049197;28;20059;-78
2022/04/24 02:16:11;;;;;;;10.50;6.40;;;9.80;66.70;;;;;;5031205;28;20037;-75
2022/04/24 02:18:37;;;;;;;14.25;6.45;;;9.70;66.80;;;;;;5053544;28;20430;-78
2022/04/24 02:21:03;;;;;;;12.73;6.88;;;9.70;66.80;;;;;;5043361;28;20068;-78
2022/04/24 02:23:29;;;;;;;10.10;6.65;;;9.70;66.80;;;;;;5060936;28;20048;-74
2022/04/24 02:25:55;;;;;;;10.73;6.78;;;9.60;66.70;;;;;;5033683;28;20040;-78
2022/04/24 02:28:21;;;;;;;12.05;6.95;;;9.60;66.70;;;;;;5063827;28;20066;-78
2022/04/24 02:30:48;;;;;;;12.25;6.47;;;9.60;66.60;;;;;;5022270;28;20091;-77
2022/04/24 02:33:14;;;;;;;13.45;7.68;;;9.60;66.70;;;;;;5015073;28;20425;-75
2022/04/24 02:35:41;;;;;;;13.43;7.85;;;9.50;66.40;;;;;;5010142;28;20400;-74
2022/04/24 02:38:07;;;;;;;11.77;6.63;;;9.60;66.90;;;;;;5053030;28;20048;-73
2022/04/24 02:40:34;;;;;;;12.10;7.38;;;9.60;66.10;;;;;;5035430;28;20051;-75
2022/04/24 02:43:00;;;;;;;11.65;7.40;;;9.60;66.10;;;;;;5044419;28;20059;-74
2022/04/24 02:45:27;;;;;;;14.23;7.30;;;9.70;66.80;;;;;;5030949;28;20468;-77
2022/04/24 02:47:53;;;;;;;12.38;7.07;;;9.70;66.70;;;;;;5023810;28;20041;-75
2022/04/24 02:50:19;;;;;;;12.82;6.93;;;9.70;66.70;;;;;;5036547;28;20029;-74
2022/04/24 02:53:06;;;;;;;11.45;6.00;;;9.80;66.00;;;;;;5046417;28;20036;-75
2022/04/24 02:55:32;;;;;;;10.10;4.70;;;9.90;66.80;;;;;;5037308;28;20431;-74
2022/04/24 02:57:58;;;;;;;9.52;4.88;;;9.90;66.60;;;;;;5045269;28;20489;-78
2022/04/24 03:00:25;;;;;;;8.20;3.90;;;9.90;66.80;;;;;;5043213;28;20098;-75
2022/04/24 03:02:53;;;;;;;7.20;3.88;;;9.90;66.70;;;;;;5047357;28;20672;-74
2022/04/24 03:05:38;;;;;;;10.55;4.97;;;10.00;66.70;;;;;;5039414;28;20025;-75
2022/04/24 03:08:05;;;;;;;6.88;3.42;;;10.00;67.20;;;;;;5042470;28;20044;-75
2022/04/24 03:10:32;;;;;;;9.38;3.40;;;10.00;67.80;;;;;;5039060;28;20036;-78
2022/04/24 03:12:59;;;;;;;7.70;3.50;;;10.00;68.50;;;;;;5016600;28;20038;-75
2022/04/24 03:15:25;;;;;;;8.75;3.33;;;10.00;68.80;;;;;;5042366;28;20032;-79
2022/04/24 03:17:54;;;;;;;8.25;3.83;;;10.10;68.90;;;;;;5041682;28;20040;-79
2022/04/24 03:20:22;;;;;;;7.68;3.35;;;10.10;69.20;;;;;;5023831;28;20401;-78
2022/04/24 03:22:50;;;;;;;8.88;3.45;;;10.10;69.40;;;;;;5024962;28;20485;-80
2022/04/24 03:25:16;;;;;;;6.45;3.00;;;10.10;69.60;;;;;;5065040;28;20058;-79
2022/04/24 03:27:42;;;;;;;;;;;10.10;69.80;;;;;;5068347;28;20100;-79
2022/04/24 03:30:10;;;;;;;7.05;2.70;;;10.10;68.70;;;;;;5039470;28;19916;-78
2022/04/24 03:32:37;;;;;;;6.43;2.90;;;10.20;69.90;;;;;;5038924;28;20033;-75
2022/04/24 03:35:06;;;;;;;5.25;2.40;;;10.20;70.50;;;;;;5062837;28;20064;-75
2022/04/24 03:37:35;;;;;;;5.30;2.53;;;10.30;70.90;;;;;;5032869;28;20601;-79
2022/04/24 03:40:01;;;;;;;5.13;2.20;;;10.30;71.40;;;;;;5050763;28;20163;-78
2022/04/24 03:42:27;;;;;;;6.07;2.47;;;10.30;72.00;;;;;;5026695;28;20429;-78
2022/04/24 03:44:54;;;;;;;;;;;10.40;71.50;;;;;;5064332;28;20037;-75
2022/04/24 03:47:21;;;;;;;5.70;2.45;;;10.50;71.00;;;;;;5044450;28;20126;-79
2022/04/24 03:49:47;;;;;;;;;;;10.50;71.30;;;;;;5052890;28;20029;-78
2022/04/24 03:52:13;;;;;;;3.75;1.17;;;10.50;72.30;;;;;;5044614;28;20398;-75
2022/04/24 03:54:40;;;;;;;6.13;1.80;;;10.60;74.00;;;;;;5059086;28;20029;-77
2022/04/24 03:57:06;;;;;;;5.32;1.42;;;10.70;74.40;;;;;;5037856;28;20045;-78
2022/04/24 03:59:33;;;;;;;6.10;1.70;;;10.80;74.40;;;;;;5057350;28;20025;-75
2022/04/24 04:01:59;;;;;;;5.75;1.63;;;10.90;74.90;;;;;;5032755;28;20026;-77
2022/04/24 04:04:25;;;;;;;4.75;1.75;;;11.00;74.90;;;;;;5039768;28;20485;-75
2022/04/24 04:06:51;;;;;;;;;;;11.00;74.60;;;;;;5041896;28;20037;-75
2022/04/24 04:09:17;;;;;;;7.57;2.25;;;11.10;74.00;;;;;;5062321;28;20291;-77
2022/04/24 04:11:43;;;;;;;3.17;1.10;;;11.10;74.70;;;;;;5060972;28;20100;-75
2022/04/24 04:14:09;;;;;;;4.07;1.15;;;11.20;74.90;;;;;;5057413;28;20032;-75
2022/04/24 04:16:35;;;;;;;3.40;1.02;;;11.40;75.40;;;;;;5042656;28;20535;-74
2022/04/24 04:19:02;;;;;;;3.92;0.95;;;11.50;75.70;;;;;;5054195;28;20436;-79
2022/04/24 04:21:28;;;;;;;2.28;0.73;;;11.60;75.70;;;;;;5012692;28;20040;-78
2022/04/24 04:23:54;;;;;;;5.45;0.90;;;11.70;75.80;;;;;;5039944;28;20045;-75
2022/04/24 04:26:20;;;;;;;5.90;0.90;;;11.80;75.60;;;;;;5036972;28;20029;-75
2022/04/24 04:28:47;;;;;;;5.15;1.00;;;11.90;75.50;;;;;;5048725;28;20044;-75
2022/04/24 04:31:14;;;;;;;3.55;1.00;;;12.00;75.30;;;;;;5045236;28;20492;-76
2022/04/24 04:33:41;;;;;;;6.10;0.93;;;12.10;75.40;;;;;;5065288;28;20114;-75
2022/04/24 04:36:08;;;;;;;4.03;1.00;;;12.10;75.10;;;;;;5052165;28;20396;-76
2022/04/24 04:38:34;;;;;;;4.63;1.02;;;12.20;75.00;;;;;;5050150;28;20055;-75
2022/04/24 04:41:01;;;;;;;3.10;0.65;;;12.30;74.80;;;;;;5053155;28;20036;-79
2022/04/24 04:43:27;;;;;;;4.60;0.82;;;12.40;74.50;;;;;;5031649;28;20037;-76
2022/04/24 04:45:54;;;;;;;6.05;1.00;;;12.40;73.50;;;;;;5035135;28;20039;-78
2022/04/24 04:48:20;;;;;;;3.55;0.90;;;12.50;73.90;;;;;;5061494;28;20079;-76
2022/04/24 04:50:46;;;;;;;2.75;0.82;;;12.60;73.60;;;;;;5038168;28;20508;-79
2022/04/24 04:53:12;;;;;;;2.70;0.65;;;12.60;73.30;;;;;;5059928;28;20049;-78
2022/04/24 04:55:38;;;;;;;4.13;1.02;;;12.70;73.50;;;;;;5033147;28;20030;-76
2022/04/24 04:58:04;;;;;;;5.05;0.80;;;12.70;73.20;;;;;;5042739;28;20041;-78
2022/04/24 05:00:32;;;;;;;;;;;12.70;73.20;;;;;;5057933;28;20112;-78
2022/04/24 05:02:59;;;;;;;2.55;0.70;;;12.80;72.80;;;;;;5045811;28;19920;-76
2022/04/24 05:05:25;;;;;;;3.65;0.70;;;12.80;72.60;;;;;;5063340;28;20037;-76
2022/04/24 05:07:52;;;;;;;;;;;12.90;72.60;;;;;;5061875;28;20064;-76
2022/04/24 05:10:18;;;;;;;4.53;0.97;;;13.00;72.40;;;;;;5068810;28;19917;-79
2022/04/24 05:12:44;;;;;;;2.65;0.88;;;13.00;71.50;;;;;;5055540;28;20033;-77
2022/04/24 05:15:13;;;;;;;4.72;0.88;;;13.10;72.20;;;;;;5050017;28;20103;-79
2022/04/24 05:17:41;;;;;;;4.07;0.70;;;13.10;71.90;;;;;;5043394;28;20127;-76
2022/04/24 05:20:10;;;;;;;7.68;2.35;;;13.10;72.20;;;;;;5062428;28;20422;-79
2022/04/24 05:22:38;;;;;;;2.75;0.70;;;13.10;72.20;;;;;;5030249;28;20039;-78
2022/04/24 05:25:07;;;;;;;2.20;0.80;;;13.10;72.40;;;;;;5048561;28;20112;-77
2022/04/24 05:27:33;;;;;;;1.95;0.82;;;13.10;72.20;;;;;;5051216;28;20049;-77
2022/04/24 05:29:59;;;;;;;5.40;1.30;;;13.10;72.00;;;;;;5035714;28;20069;-79
2022/04/24 05:32:26;;;;;;;2.05;0.50;;;13.10;71.90;;;;;;5044360;28;20052;-77
2022/04/24 05:34:53;;;;;;;7.57;1.10;;;13.10;72.00;;;;;;5030068;28;20033;-80
2022/04/24 05:37:19;;;;;;;3.47;0.90;;;13.10;71.70;;;;;;5055737;28;20110;-77
2022/04/24 05:39:45;;;;;;;2.80;1.13;;;13.20;71.30;;;;;;5039218;28;20033;-79
2022/04/24 05:42:11;;;;;;;6.60;1.27;;;13.20;70.90;;;;;;5032093;28;20049;-79
2022/04/24 05:44:37;;;;;;;;;;;13.40;70.30;;;;;;5033853;28;20037;-79
2022/04/24 05:47:06;;;;;;;9.52;1.48;;;13.50;70.20;;;;;;5056270;28;19921;-76
2022/04/24 05:49:32;;;;;;;4.45;0.82;;;13.50;69.00;;;;;;5037835;28;20504;-78
2022/04/24 05:51:58;;;;;;;3.63;1.08;;;13.60;68.80;;;;;;5039644;28;20029;-78
2022/04/24 05:54:24;;;;;;;3.78;0.90;;;13.70;68.10;;;;;;5050283;28;20036;-76
2022/04/24 05:56:50;;;;;;;4.35;1.02;;;13.80;67.50;;;;;;5032954;28;20041;-76
2022/04/24 05:59:16;;;;;;;3.33;0.70;;;13.90;67.40;;;;;;5015916;28;20050;-77
2022/04/24 06:01:42;;;;;;;4.07;0.73;;;14.00;66.80;;;;;;5035860;28;20043;-79
2022/04/24 06:04:08;;;;;;;7.10;1.92;;;14.10;65.90;;;;;;5031638;28;20448;-77
2022/04/24 06:06:34;;;;;;;6.68;1.33;;;14.10;65.70;;;;;;5042675;28;20436;-77
2022/04/24 06:09:00;;;;;;;6.30;1.20;;;14.20;65.20;;;;;;5062410;28;20045;-77
2022/04/24 06:11:26;;;;;;;4.90;0.85;;;14.20;65.30;;;;;;5068935;28;20044;-78
2022/04/24 06:13:53;;;;;;;5.20;1.15;;;14.20;64.60;;;;;;5046587;28;20114;-79
2022/04/24 06:16:18;;;;;;;;;;;14.20;64.50;;;;;;5050904;28;20057;-79
2022/04/24 06:18:45;;;;;;;2.47;0.65;;;14.30;64.40;;;;;;5064008;28;19928;-78
2022/04/24 06:21:11;;;;;;;4.25;1.10;;;14.30;63.10;;;;;;5037060;28;20047;-78
2022/04/24 06:23:37;;;;;;;12.38;1.05;;;14.40;62.70;;;;;;5056129;28;20045;-76
2022/04/24 06:26:03;;;;;;;3.65;1.08;;;14.50;62.00;;;;;;5025277;28;20111;-77
2022/04/24 06:28:29;;;;;;;1.60;0.45;;;14.70;61.30;;;;;;5062807;28;20482;-75
2022/04/24 06:30:55;;;;;;;2.50;0.60;;;14.80;61.90;;;;;;5016509;28;20505;-76
2022/04/24 06:33:21;;;;;;;3.65;1.00;;;14.80;60.80;;;;;;5049631;28;20061;-77
2022/04/24 06:35:47;;;;;;;2.40;0.82;;;14.90;60.50;;;;;;5051165;28;20037;-77
2022/04/24 06:38:13;;;;;;;5.75;1.05;;;14.90;60.40;;;;;;5050273;28;20441;-76
2022/04/24 06:40:40;;;;;;;4.25;0.60;;;15.10;60.20;;;;;;5031256;28;20041;-78
2022/04/24 06:43:07;;;;;;;;;;;15.30;59.80;;;;;;5062328;28;20044;-76
2022/04/24 06:45:52;;;;;;;5.85;0.90;;;15.40;59.60;;;;;;5037296;28;19924;-76
2022/04/24 06:48:18;;;;;;;2.92;0.50;;;15.60;59.30;;;;;;5046685;28;20080;-75
2022/04/24 06:50:46;;;;;;;3.53;0.70;;;15.70;58.40;;;;;;5046217;28;20028;-78
2022/04/24 06:53:14;;;;;;;6.60;0.65;;;15.70;58.00;;;;;;5048221;28;20040;-77
2022/04/24 06:55:43;;;;;;;2.17;0.50;;;15.70;58.30;;;;;;5031061;28;20021;-75
2022/04/24 06:58:11;;;;;;;6.57;1.00;;;15.70;58.00;;;;;;5043177;28;20091;-75
2022/04/24 07:00:42;;;;;;;1.63;0.60;;;15.80;58.00;;;;;;5018874;28;20503;-77
2022/04/24 07:03:29;;;;;;;3.08;0.68;;;15.90;57.50;;;;;;5039923;28;20040;-75
2022/04/24 07:05:56;;;;;;;3.27;0.70;;;16.10;57.30;;;;;;5040049;28;20032;-77
2022/04/24 07:08:24;;;;;;;3.08;0.77;;;16.20;57.00;;;;;;5030761;28;20809;-77
2022/04/24 07:10:53;;;;;;;4.70;1.00;;;16.30;56.70;;;;;;5057140;28;20473;-76
2022/04/24 07:13:19;;;;;;;5.20;1.30;;;16.30;56.60;;;;;;5050303;28;20123;-77
2022/04/24 07:15:45;;;;;;;6.05;1.90;;;16.40;56.70;;;;;;5051777;28;20079;-75
2022/04/24 07:18:11;;;;;;;4.65;1.30;;;16.40;56.70;;;;;;5057246;28;20063;-77
2022/04/24 07:20:38;;;;;;;2.85;0.98;;;16.40;56.70;;;;;;5042865;28;20037;-76
2022/04/24 07:23:05;;;;;;;1.75;0.60;;;16.40;55.70;;;;;;5046677;28;20062;-75
2022/04/24 07:25:51;;;;;;;4.40;2.33;;;16.40;56.10;;;;;;5039099;28;20428;-77
2022/04/24 07:31:03;;;;;;;2.50;0.90;;;16.70;55.80;;;;;;5059134;28;20046;-75
2022/04/24 07:33:29;;;;;;;3.58;1.63;;;16.90;55.50;;;;;;5062341;28;20048;-78
2022/04/24 07:35:55;;;;;;;5.47;2.42;;;17.10;54.70;;;;;;5048013;28;20078;-77
2022/04/24 07:38:21;;;;;;;2.97;1.42;;;17.20;55.00;;;;;;5027106;28;20090;-74
2022/04/24 07:40:47;;;;;;;5.18;1.02;;;17.30;54.80;;;;;;5043917;28;20033;-77
2022/04/24 07:43:13;;;;;;;4.40;0.90;;;17.20;54.30;;;;;;5044173;28;20504;-77
2022/04/24 07:45:58;;;;;;;;;;;17.10;55.10;;;;;;5044970;28;20036;-76
2022/04/24 07:48:26;;;;;;;7.68;0.80;;;17.20;55.10;;;;;;5035473;28;19920;-78
2022/04/24 07:50:55;;;;;;;4.95;1.25;;;17.30;54.50;;;;;;5052642;28;20102;-77
2022/04/24 07:53:21;;;;;;;6.90;2.78;;;17.50;54.20;;;;;;5041127;28;20385;-75
2022/04/24 07:55:49;;;;;;;;;;;17.70;53.80;;;;;;5059686;28;20029;-77
2022/04/24 07:58:15;;;;;;;;;;;17.80;53.90;;;;;;5042924;28;19963;-75
2022/04/24 08:00:42;;;;;;;3.72;1.20;;;18.10;53.90;;;;;;5062921;28;19917;-78
2022/04/24 08:03:11;;;;;;;16.50;4.50;;;18.30;52.50;;;;;;5038311;28;20029;-75
2022/04/24 08:05:40;;;;;;;13.82;4.13;;;18.70;51.40;;;;;;5035215;28;20028;-76
2022/04/24 08:08:09;;;;;;;12.00;4.25;;;19.00;50.70;;;;;;5035193;28;20504;-75
2022/04/24 08:10:56;;;;;;;6.35;2.03;;;18.90;50.90;;;;;;5041159;28;20055;-77
2022/04/24 08:13:23;;;;;;;6.57;3.30;;;19.00;51.00;;;;;;5021735;28;20137;-75
2022/04/24 08:15:50;;;;;;;10.15;1.67;;;19.20;50.90;;;;;;5035091;28;20025;-78
2022/04/24 08:18:18;;;;;;;8.95;1.38;;;19.50;50.40;;;;;;5012934;28;20046;-75
2022/04/24 08:20:46;;;;;;;5.30;1.10;;;19.50;49.30;;;;;;5050141;28;20024;-77
2022/04/24 08:23:15;;;;;;;3.08;0.98;;;19.40;49.20;;;;;;5028360;28;20032;-75
2022/04/24 08:25:42;;;;;;;13.23;2.10;;;19.00;49.40;;;;;;5045754;28;20074;-82
2022/04/24 08:28:10;;;;;;;11.23;1.83;;;18.20;55.90;;;;;;5035348;28;20382;-80
2022/04/24 08:30:57;;;;;;;7.53;1.23;;;16.40;67.70;;;;;;5036438;28;20025;-80
2022/04/24 08:33:23;;;;;;;8.02;3.35;;;16.00;71.40;;;;;;5041384;28;20422;-79
2022/04/24 08:35:49;;;;;;;4.68;1.08;;;16.30;71.90;;;;;;5022548;28;20743;-79
2022/04/24 08:38:15;;;;;;;;;;;16.40;73.10;;;;;;5047870;28;20052;-79
2022/04/24 08:40:42;;;;;;;3.83;1.35;;;16.20;72.20;;;;;;5059217;28;19995;-77
2022/04/24 08:43:08;;;;;;;8.18;1.27;;;16.40;75.40;;;;;;5046718;28;20029;-75
2022/04/24 08:45:36;;;;;;;6.85;1.38;;;17.30;75.40;;;;;;5033335;28;20387;-75
2022/04/24 08:48:04;;;;;;;6.68;1.00;;;17.50;74.60;;;;;;5065170;28;20106;-74
2022/04/24 08:50:33;;;;;;;5.20;1.13;;;17.10;75.20;;;;;;5016341;28;20064;-75
2022/04/24 08:53:00;;;;;;;7.00;1.20;;;16.80;75.10;;;;;;5038745;28;20025;-75
2022/04/24 08:55:45;;;;;;;5.90;1.67;;;17.00;75.00;;;;;;5040959;28;20087;-75
2022/04/24 08:58:11;;;;;;;3.33;0.70;;;17.80;74.10;;;;;;5024195;28;20041;-74
2022/04/24 09:00:38;;;;;;;6.43;0.80;;;18.80;73.20;;;;;;5032532;28;20030;-74
2022/04/24 09:03:04;;;;;;;5.97;1.40;;;20.10;70.00;;;;;;5065552;28;20032;-74
2022/04/24 09:05:30;;;;;;;;;;;21.20;67.30;;;;;;5044989;28;20404;-74
2022/04/24 09:08:15;;;;;;;5.80;0.95;;;22.10;66.20;;;;;;5056394;28;20143;-74
2022/04/24 09:10:59;;;;;;;4.13;0.90;;;23.30;62.30;;;;;;5067328;28;20039;-75
2022/04/24 09:16:36;;;;;;;3.17;0.90;;;25.00;55.00;;;;;;5058425;28;20094;-74
2022/04/24 09:19:41;;;;;;;5.05;1.00;;;26.10;50.90;;;;;;5067047;28;20127;-76
2022/04/24 09:22:10;;;;;;;2.88;0.60;;;27.20;50.10;;;;;;5066267;28;20041;-75
2022/04/24 09:24:56;;;;;;;5.03;0.70;;;27.70;44.30;;;;;;5049410;28;20413;-75
2022/04/24 09:27:41;;;;;;;2.75;0.60;;;27.90;42.90;;;;;;5041610;28;20144;-76
2022/04/24 09:30:27;;;;;;;2.97;0.52;;;28.40;40.40;;;;;;5043952;28;20138;-77
2022/04/24 09:32:57;;;;;;;2.33;0.95;;;29.40;38.20;;;;;;5052790;28;20429;-76
2022/04/24 09:35:43;;;;;;;4.43;0.65;;;30.10;36.00;;;;;;5032885;28;20051;-75
2022/04/24 09:38:27;;;;;;;3.58;0.88;;;30.20;34.80;;;;;;5021010;28;20029;-75
2022/04/24 09:40:54;;;;;;;4.43;2.45;;;30.60;33.80;;;;;;5026774;28;20087;-75
2022/04/24 09:43:20;;;;;;;3.22;0.65;;;31.00;32.10;;;;;;5059843;28;20037;-76
2022/04/24 09:45:48;;;;;;;3.00;0.70;;;31.80;29.00;;;;;;5028402;28;20032;-77
2022/04/24 09:48:33;;;;;;;2.25;0.60;;;32.10;29.90;;;;;;5067945;28;20091;-76
2022/04/24 09:51:00;;;;;;;3.58;0.85;;;32.70;29.90;;;;;;5068230;28;20029;-75
2022/04/24 09:53:29;;;;;;;5.47;1.10;;;32.90;28.00;;;;;;5019277;28;20042;-75
2022/04/24 09:55:58;;;;;;;3.22;0.80;;;32.80;26.80;;;;;;5060722;28;20029;-77
2022/04/24 09:58:25;;;;;;;4.45;0.98;;;32.90;27.10;;;;;;5044917;28;20091;-75
2022/04/24 10:00:52;;;;;;;6.20;1.60;;;33.10;26.80;;;;;;5039681;28;20032;-77
2022/04/24 10:03:20;;;;;;;7.20;1.00;;;33.60;25.50;;;;;;5067485;28;20146;-77
2022/04/24 10:05:48;;;;;;;3.85;0.90;;;34.20;24.60;;;;;;5034073;28;20393;-75
2022/04/24 10:08:34;;;;;;;5.20;0.88;;;34.40;24.00;;;;;;5030758;28;20084;-75
2022/04/24 10:11:20;;;;;;;5.40;0.77;;;34.80;24.90;;;;;;5062934;28;20025;-76
2022/04/24 10:13:48;;;;;;;3.93;0.83;;;35.20;24.10;;;;;;5043860;28;20036;-75
2022/04/24 10:16:52;;;;;;;2.72;0.70;;;35.50;22.30;;;;;;5053480;28;20066;-76
2022/04/24 10:20:16;;;;;;;4.93;0.90;;;32.90;24.50;;;;;;5061304;28;20040;-77
2022/04/24 10:23:02;;;;;;;4.22;1.00;;;33.50;25.20;;;;;;5056808;28;20071;-76
2022/04/24 10:25:51;;;;;;;7.05;3.25;;;34.20;23.50;;;;;;5045110;28;20496;-77
2022/04/24 10:28:19;;;;;;;5.95;1.13;;;35.40;23.60;;;;;;5051006;28;20392;-77
2022/04/24 10:31:05;;;;;;;4.47;0.80;;;37.10;21.80;;;;;;5028418;28;20419;-76
2022/04/24 10:33:34;;;;;;;2.83;0.70;;;38.20;21.00;;;;;;5050654;28;20056;-76
2022/04/24 10:36:19;;;;;;;7.05;1.27;;;38.00;20.60;;;;;;5048684;28;20021;-75
2022/04/24 10:39:16;;;;;;;4.55;1.00;;;36.30;21.50;;;;;;5039005;28;20040;-76
2022/04/24 10:41:53;;;;;;;;;;;34.90;22.10;;;;;;5024886;28;20052;-75
2022/04/24 10:44:19;;;;;;;;;;;35.70;22.50;;;;;;5055826;28;19916;-75
2022/04/24 10:46:48;;;;;;;6.22;0.98;;;36.80;22.30;;;;;;5039757;28;19924;-75
2022/04/24 10:49:17;;;;;;;4.35;1.05;;;37.80;20.80;;;;;;5043967;28;20392;-76
2022/04/24 10:52:04;;;;;;;1.98;0.80;;;39.20;19.90;;;;;;5046130;28;20359;-77
2022/04/24 10:54:48;;;;;;;;;;;39.80;18.40;;;;;;5040468;28;20028;-77
2022/04/24 10:57:21;;;;;;;3.30;0.70;;;40.00;18.50;;;;;;5050373;28;19924;-75
2022/04/24 10:59:51;;;;;;;3.65;0.70;;;38.90;16.50;;;;;;5045560;28;20036;-76
2022/04/24 11:02:44;;;;;;;2.67;0.70;;;37.90;16.10;;;;;;5042053;28;20036;-77
2022/04/24 11:05:10;;;;;;;5.13;0.90;;;37.70;17.70;;;;;;5060629;28;20036;-76
2022/04/24 11:07:37;;;;;;;2.70;0.77;;;37.60;17.00;;;;;;5049078;28;20047;-76
2022/04/24 11:10:06;;;;;;;3.58;0.93;;;36.90;16.60;;;;;;5055776;28;20041;-75
2022/04/24 11:12:33;;;;;;;3.08;0.80;;;35.20;18.10;;;;;;5029729;28;20113;-77
2022/04/24 11:15:18;;;;;;;4.85;0.90;;;34.40;19.30;;;;;;5032624;28;20035;-76
2022/04/24 11:17:44;;;;;;;2.35;0.52;;;34.60;19.60;;;;;;5065259;28;20033;-76
2022/04/24 11:20:14;;;;;;;6.35;0.95;;;34.10;20.10;;;;;;5054948;28;20099;-77
2022/04/24 11:22:59;;;;;;;3.38;0.82;;;35.10;18.80;;;;;;5035794;28;20470;-76
2022/04/24 11:25:27;;;;;;;3.30;0.70;;;36.00;17.90;;;;;;5053199;28;20037;-76
2022/04/24 11:28:15;;;;;;;4.80;0.77;;;34.10;18.50;;;;;;5038168;28;20032;-76
2022/04/24 11:30:41;;;;;;;5.55;1.00;;;31.80;19.90;;;;;;5043497;28;20025;-76
2022/04/24 11:33:08;;;;;;;6.07;1.30;;;31.10;21.60;;;;;;5055564;28;20393;-76
2022/04/24 11:35:39;;;;;;;6.57;1.73;;;33.60;20.80;;;;;;5036235;28;20071;-77
2022/04/24 11:38:09;;;;;;;7.82;2.80;;;33.00;20.50;;;;;;5064392;28;20068;-76
2022/04/24 11:40:43;;;;;;;5.90;0.80;;;31.60;19.70;;;;;;5039647;28;20025;-77
2022/04/24 11:43:09;;;;;;;7.07;1.23;;;31.20;21.30;;;;;;5033148;28;20401;-76
2022/04/24 11:51:26;;;;;;;2.28;0.68;;;33.30;18.80;;;;;;5046957;28;20087;-76
2022/04/24 11:53:54;;;;;;;4.82;1.30;;;34.50;16.30;;;;;;5054328;28;20380;-77
2022/04/24 11:56:20;;;;;;;3.40;0.80;;;34.90;16.90;;;;;;5046786;28;20388;-78
2022/04/24 11:58:48;;;;;;;5.60;0.93;;;35.50;15.70;;;;;;5044093;28;20060;-77
2022/04/24 12:01:17;;;;;;;1.92;0.52;;;35.70;16.30;;;;;;5041907;28;20039;-77
2022/04/24 12:03:45;;;;;;;3.22;1.60;;;36.60;14.60;;;;;;5045691;28;20064;-77
2022/04/24 12:06:13;;;;;;;6.07;2.35;;;37.10;15.70;;;;;;5047053;28;20028;-77
2022/04/24 12:09:06;;;;;;;6.22;1.63;;;37.60;14.70;;;;;;5019159;28;20040;-77
2022/04/24 12:11:35;;;;;;;6.55;1.10;;;38.60;14.90;;;;;;5037789;28;20025;-77
2022/04/24 12:14:26;;;;;;;4.80;0.95;;;38.10;14.50;;;;;;5057754;28;20037;-77
2022/04/24 12:16:55;;;;;;;5.85;0.90;;;36.20;14.80;;;;;;5053482;28;20025;-77
2022/04/24 12:19:21;;;;;;;7.22;0.90;;;33.80;16.30;;;;;;5061366;28;20025;-76
2022/04/24 12:21:50;;;;;;;9.27;2.25;;;32.20;18.50;;;;;;5063860;28;20032;-77
2022/04/24 12:24:18;;;;;;;8.13;1.50;;;31.40;19.70;;;;;;5034718;28;20102;-77
2022/04/24 12:27:03;;;;;;;10.23;1.38;;;30.90;19.00;;;;;;5043697;28;20029;-78
2022/04/24 12:32:33;;;;;;;4.05;0.88;;;33.80;18.80;;;;;;5049045;28;20043;-77
2022/04/24 12:34:59;;;;;;;10.35;1.38;;;34.80;16.30;;;;;;5050841;28;20037;-78
2022/04/24 12:37:46;;;;;;;4.88;0.73;;;35.40;16.20;;;;;;5032447;28;20089;-77
2022/04/24 12:40:14;;;;;;;7.15;1.40;;;35.30;16.00;;;;;;5042663;28;20036;-77
2022/04/24 12:43:09;;;;;;;10.68;1.20;;;35.30;16.10;;;;;;5058388;28;20033;-77
2022/04/24 12:45:35;;;;;;;5.72;1.20;;;35.10;15.60;;;;;;5052867;28;20030;-77
2022/04/24 12:48:01;;;;;;;5.45;1.15;;;32.80;17.60;;;;;;5037084;28;20033;-77
2022/04/24 12:50:27;;;;;;;5.85;1.80;;;31.40;18.10;;;;;;5036698;28;20053;-78
2022/04/24 12:52:53;;;;;;;4.40;1.70;;;33.50;18.20;;;;;;5037169;28;20041;-77
2022/04/24 12:55:19;;;;;;;4.55;0.95;;;35.40;16.30;;;;;;5049833;28;20040;-77
2022/04/24 12:57:46;;;;;;;4.45;1.02;;;35.10;15.70;;;;;;5034671;28;20041;-77
2022/04/24 13:00:13;;;;;;;5.30;1.05;;;32.50;16.90;;;;;;5056596;28;20478;-78
2022/04/24 13:02:39;;;;;;;2.45;0.68;;;30.60;19.00;;;;;;5040306;28;20033;-77
2022/04/24 13:05:06;;;;;;;4.22;0.80;;;29.60;20.70;;;;;;5040132;28;20025;-77
2022/04/24 13:07:32;;;;;;;3.30;0.70;;;28.40;21.00;;;;;;5040174;28;20144;-77
2022/04/24 13:09:58;;;;;;;3.75;0.70;;;27.80;21.50;;;;;;5037807;28;20037;-77
2022/04/24 13:12:24;;;;;;;2.00;0.60;;;27.30;22.90;;;;;;5047359;28;20048;-78
2022/04/24 13:14:50;;;;;;;5.32;0.77;;;26.90;23.00;;;;;;5054904;28;20099;-77
2022/04/24 13:20:01;;;;;;;5.10;1.05;;;26.00;23.80;;;;;;5055000;28;20040;-77
2022/04/24 13:22:27;;;;;;;3.42;0.82;;;25.90;24.30;;;;;;5054670;28;20036;-78